sensor_id;sensor_type;location;lat;lon;timestamp;pressure;altitude;pressure_sealevel;temperature;humidity
77360;BME280;66426;51.454;7.266;2023-04-25T00:00:21;99478.03;;;6.15;77.10
77360;BME280;66426;51.454;7.266;2023-04-25T00:01:22;99477.81;;;6.20;77.05
77360;BME280;66426;51.454;7.266;2023-04-25T00:02:23;99474.66;;;6.31;76.51
77360;BME280;66426;51.454;7.266;2023-04-25T00:03:25;99472.72;;;6.14;76.93
77360;BME280;66426;51.454;7.266;2023-04-25T00:04:27;99476.41;;;6.11;77.14
77360;BME280;66426;51.454;7.266;2023-04-25T00:05:28;99473.28;;;6.22;76.83
77360;BME280;66426;51.454;7.266;2023-04-25T00:06:30;99480.09;;;6.29;76.57
77360;BME280;66426;51.454;7.266;2023-04-25T00:07:32;99472.81;;;6.33;76.60
77360;BME280;66426;51.454;7.266;2023-04-25T00:08:33;99481.16;;;6.25;76.86
77360;BME280;66426;51.454;7.266;2023-04-25T00:09:35;99481.97;;;6.27;76.47
77360;BME280;66426;51.454;7.266;2023-04-25T00:10:36;99491.53;;;6.33;76.84
77360;BME280;66426;51.454;7.266;2023-04-25T00:11:37;99478.88;;;6.36;77.07
77360;BME280;66426;51.454;7.266;2023-04-25T00:12:38;99484.38;;;6.13;77.58
77360;BME280;66426;51.454;7.266;2023-04-25T00:13:39;99484.22;;;6.16;77.66
77360;BME280;66426;51.454;7.266;2023-04-25T00:14:42;99486.91;;;6.16;77.32
77360;BME280;66426;51.454;7.266;2023-04-25T00:15:43;99484.19;;;6.17;77.16
77360;BME280;66426;51.454;7.266;2023-04-25T00:16:44;99486.91;;;6.16;77.57
77360;BME280;66426;51.454;7.266;2023-04-25T00:17:45;99487.66;;;6.19;77.67
77360;BME280;66426;51.454;7.266;2023-04-25T00:18:46;99483.22;;;6.18;77.47
77360;BME280;66426;51.454;7.266;2023-04-25T00:19:51;99484.16;;;6.38;77.16
77360;BME280;66426;51.454;7.266;2023-04-25T00:20:53;99483.00;;;6.43;77.14
77360;BME280;66426;51.454;7.266;2023-04-25T00:21:54;99487.78;;;6.37;77.06
77360;BME280;66426;51.454;7.266;2023-04-25T00:22:55;99486.31;;;6.30;76.97
77360;BME280;66426;51.454;7.266;2023-04-25T00:23:56;99485.25;;;6.13;77.93
77360;BME280;66426;51.454;7.266;2023-04-25T00:24:58;99487.78;;;6.37;77.09
77360;BME280;66426;51.454;7.266;2023-04-25T00:26:00;99482.66;;;6.51;76.49
77360;BME280;66426;51.454;7.266;2023-04-25T00:27:01;99493.38;;;6.51;76.52
77360;BME280;66426;51.454;7.266;2023-04-25T00:28:03;99488.81;;;6.53;76.59
77360;BME280;66426;51.454;7.266;2023-04-25T00:29:04;99484.50;;;6.30;77.31
77360;BME280;66426;51.454;7.266;2023-04-25T00:30:05;99489.84;;;6.30;76.91
77360;BME280;66426;51.454;7.266;2023-04-25T00:31:07;99489.38;;;6.20;77.95
77360;BME280;66426;51.454;7.266;2023-04-25T00:32:07;99492.69;;;6.27;77.85
77360;BME280;66426;51.454;7.266;2023-04-25T00:33:09;99494.34;;;6.30;77.64
77360;BME280;66426;51.454;7.266;2023-04-25T00:34:10;99490.38;;;6.38;77.56
77360;BME280;66426;51.454;7.266;2023-04-25T00:35:11;99489.72;;;6.33;77.86
77360;BME280;66426;51.454;7.266;2023-04-25T00:36:12;99490.72;;;6.31;77.75
77360;BME280;66426;51.454;7.266;2023-04-25T00:37:13;99489.72;;;6.33;77.52
77360;BME280;66426;51.454;7.266;2023-04-25T00:38:14;99490.06;;;6.25;77.81
77360;BME280;66426;51.454;7.266;2023-04-25T00:39:15;99491.88;;;6.25;77.98
77360;BME280;66426;51.454;7.266;2023-04-25T00:40:17;99486.00;;;6.17;78.60
77360;BME280;66426;51.454;7.266;2023-04-25T00:41:18;99484.66;;;6.27;78.09
77360;BME280;66426;51.454;7.266;2023-04-25T00:42:20;99494.34;;;6.30;78.34
77360;BME280;66426;51.454;7.266;2023-04-25T00:43:21;99488.78;;;6.14;78.40
77360;BME280;66426;51.454;7.266;2023-04-25T00:44:24;99491.91;;;6.23;78.00
77360;BME280;66426;51.454;7.266;2023-04-25T00:45:28;99493.53;;;6.28;78.06
77360;BME280;66426;51.454;7.266;2023-04-25T00:46:30;99496.16;;;6.29;78.50
77360;BME280;66426;51.454;7.266;2023-04-25T00:47:32;99486.91;;;6.36;77.80
77360;BME280;66426;51.454;7.266;2023-04-25T00:48:33;99485.47;;;6.29;77.85
77360;BME280;66426;51.454;7.266;2023-04-25T00:49:34;99485.72;;;6.23;77.84
77360;BME280;66426;51.454;7.266;2023-04-25T00:50:36;99488.72;;;6.15;78.50
77360;BME280;66426;51.454;7.266;2023-04-25T00:51:37;99491.34;;;6.17;78.30
77360;BME280;66426;51.454;7.266;2023-04-25T00:52:40;99483.44;;;6.34;77.93
77360;BME280;66426;51.454;7.266;2023-04-25T00:53:41;99479.81;;;6.35;77.54
77360;BME280;66426;51.454;7.266;2023-04-25T00:54:43;99482.22;;;6.21;78.39
77360;BME280;66426;51.454;7.266;2023-04-25T00:55:45;99491.88;;;6.25;77.88
77360;BME280;66426;51.454;7.266;2023-04-25T00:56:46;99483.09;;;6.21;79.29
77360;BME280;66426;51.454;7.266;2023-04-25T00:57:47;99485.84;;;6.20;78.70
77360;BME280;66426;51.454;7.266;2023-04-25T00:58:49;99489.13;;;6.26;78.43
77360;BME280;66426;51.454;7.266;2023-04-25T00:59:53;99486.03;;;6.15;78.68
77360;BME280;66426;51.454;7.266;2023-04-25T01:00:55;99485.91;;;6.18;79.00
77360;BME280;66426;51.454;7.266;2023-04-25T01:01:58;99479.34;;;6.25;79.25
77360;BME280;66426;51.454;7.266;2023-04-25T01:02:59;99483.22;;;6.39;78.71
77360;BME280;66426;51.454;7.266;2023-04-25T01:04:00;99492.72;;;6.46;78.56
77360;BME280;66426;51.454;7.266;2023-04-25T01:05:02;99490.69;;;6.51;78.38
77360;BME280;66426;51.454;7.266;2023-04-25T01:06:03;99487.19;;;6.30;79.00
77360;BME280;66426;51.454;7.266;2023-04-25T01:07:04;99492.69;;;6.27;79.40
77360;BME280;66426;51.454;7.266;2023-04-25T01:08:05;99484.22;;;6.36;78.79
77360;BME280;66426;51.454;7.266;2023-04-25T01:09:06;99490.91;;;6.26;79.34
77360;BME280;66426;51.454;7.266;2023-04-25T01:10:09;99495.41;;;6.25;79.91
77360;BME280;66426;51.454;7.266;2023-04-25T01:11:11;99495.00;;;6.35;79.84
77360;BME280;66426;51.454;7.266;2023-04-25T01:12:12;99493.41;;;6.31;80.14
77360;BME280;66426;51.454;7.266;2023-04-25T01:13:13;99499.94;;;6.23;80.47
77360;BME280;66426;51.454;7.266;2023-04-25T01:14:14;99496.03;;;6.32;80.56
77360;BME280;66426;51.454;7.266;2023-04-25T01:15:15;99493.72;;;6.23;80.95
77360;BME280;66426;51.454;7.266;2023-04-25T01:16:16;99496.34;;;6.24;81.60
77360;BME280;66426;51.454;7.266;2023-04-25T01:17:18;99497.16;;;6.26;81.38
77360;BME280;66426;51.454;7.266;2023-04-25T01:18:19;99494.25;;;6.31;81.56
77360;BME280;66426;51.454;7.266;2023-04-25T01:19:21;99497.13;;;6.06;81.60
77360;BME280;66426;51.454;7.266;2023-04-25T01:20:22;99495.41;;;6.05;82.87
77360;BME280;66426;51.454;7.266;2023-04-25T01:21:25;99496.75;;;6.15;83.21
77360;BME280;66426;51.454;7.266;2023-04-25T01:22:30;99486.56;;;6.23;81.93
77360;BME280;66426;51.454;7.266;2023-04-25T01:23:31;99491.19;;;6.20;81.59
77360;BME280;66426;51.454;7.266;2023-04-25T01:24:33;99492.44;;;6.11;81.82
77360;BME280;66426;51.454;7.266;2023-04-25T01:25:35;99495.25;;;6.29;81.76
77360;BME280;66426;51.454;7.266;2023-04-25T01:26:37;99494.41;;;6.28;82.17
77360;BME280;66426;51.454;7.266;2023-04-25T01:27:39;99496.06;;;6.31;82.48
77360;BME280;66426;51.454;7.266;2023-04-25T01:28:40;99497.28;;;6.23;82.02
77360;BME280;66426;51.454;7.266;2023-04-25T01:29:42;99492.00;;;6.22;82.13
77360;BME280;66426;51.454;7.266;2023-04-25T01:30:43;99491.06;;;6.23;82.41
77360;BME280;66426;51.454;7.266;2023-04-25T01:31:44;99490.91;;;6.26;82.04
77360;BME280;66426;51.454;7.266;2023-04-25T01:32:45;99486.38;;;6.28;81.86
77360;BME280;66426;51.454;7.266;2023-04-25T01:33:48;99496.03;;;6.32;81.88
77360;BME280;66426;51.454;7.266;2023-04-25T01:34:49;99496.41;;;6.23;83.28
77360;BME280;66426;51.454;7.266;2023-04-25T01:35:50;99492.19;;;6.38;81.67
77360;BME280;66426;51.454;7.266;2023-04-25T01:36:52;99498.34;;;6.40;81.50
77360;BME280;66426;51.454;7.266;2023-04-25T01:37:53;99496.88;;;6.12;82.65
77360;BME280;66426;51.454;7.266;2023-04-25T01:38:54;99495.53;;;6.22;82.72
77360;BME280;66426;51.454;7.266;2023-04-25T01:39:55;99492.47;;;6.32;82.06
77360;BME280;66426;51.454;7.266;2023-04-25T01:40:56;99499.03;;;6.24;82.35
77360;BME280;66426;51.454;7.266;2023-04-25T01:41:58;99496.94;;;6.31;81.99
77360;BME280;66426;51.454;7.266;2023-04-25T01:43:00;99488.91;;;6.31;81.61
77360;BME280;66426;51.454;7.266;2023-04-25T01:44:01;99498.75;;;6.31;81.10
77360;BME280;66426;51.454;7.266;2023-04-25T01:45:03;99497.88;;;6.30;81.72
77360;BME280;66426;51.454;7.266;2023-04-25T01:46:04;99499.03;;;6.24;81.87
77360;BME280;66426;51.454;7.266;2023-04-25T01:47:05;99499.13;;;6.21;81.95
77360;BME280;66426;51.454;7.266;2023-04-25T01:48:06;99503.19;;;6.32;81.62
77360;BME280;66426;51.454;7.266;2023-04-25T01:49:08;99502.38;;;6.09;82.99
77360;BME280;66426;51.454;7.266;2023-04-25T01:50:10;99500.63;;;6.08;83.25
77360;BME280;66426;51.454;7.266;2023-04-25T01:51:12;99507.16;;;6.21;82.36
77360;BME280;66426;51.454;7.266;2023-04-25T01:52:14;99504.16;;;6.09;81.98
77360;BME280;66426;51.454;7.266;2023-04-25T01:53:15;99507.78;;;6.08;82.34
77360;BME280;66426;51.454;7.266;2023-04-25T01:54:17;99510.78;;;6.20;82.63
77360;BME280;66426;51.454;7.266;2023-04-25T01:55:19;99512.13;;;6.31;82.31
77360;BME280;66426;51.454;7.266;2023-04-25T01:56:20;99509.59;;;6.28;82.62
77360;BME280;66426;51.454;7.266;2023-04-25T01:57:21;99504.44;;;6.43;81.57
77360;BME280;66426;51.454;7.266;2023-04-25T01:58:21;99505.22;;;6.45;81.09
77360;BME280;66426;51.454;7.266;2023-04-25T01:59:22;99510.63;;;6.44;81.25
77360;BME280;66426;51.454;7.266;2023-04-25T02:00:23;99509.53;;;6.50;81.90
77360;BME280;66426;51.454;7.266;2023-04-25T02:01:24;99515.31;;;6.39;82.42
77360;BME280;66426;51.454;7.266;2023-04-25T02:02:25;99510.31;;;6.31;82.72
77360;BME280;66426;51.454;7.266;2023-04-25T02:03:26;99514.41;;;6.40;81.99
77360;BME280;66426;51.454;7.266;2023-04-25T02:04:27;99511.66;;;6.41;81.59
77360;BME280;66426;51.454;7.266;2023-04-25T02:05:28;99518.66;;;6.23;82.79
77360;BME280;66426;51.454;7.266;2023-04-25T02:06:34;99518.75;;;6.22;82.63
77360;BME280;66426;51.454;7.266;2023-04-25T02:07:36;99519.44;;;6.27;82.91
77360;BME280;66426;51.454;7.266;2023-04-25T02:08:38;99522.81;;;6.31;82.82
77360;BME280;66426;51.454;7.266;2023-04-25T02:09:39;99519.91;;;6.37;82.19
77360;BME280;66426;51.454;7.266;2023-04-25T02:10:40;99520.16;;;6.31;81.76
77360;BME280;66426;51.454;7.266;2023-04-25T02:11:40;99520.88;;;6.14;82.47
77360;BME280;66426;51.454;7.266;2023-04-25T02:12:41;99513.66;;;6.16;82.65
77360;BME280;66426;51.454;7.266;2023-04-25T02:13:42;99521.34;;;6.03;83.14
77360;BME280;66426;51.454;7.266;2023-04-25T02:14:43;99521.47;;;6.20;82.28
77360;BME280;66426;51.454;7.266;2023-04-25T02:15:44;99525.50;;;6.31;82.26
77360;BME280;66426;51.454;7.266;2023-04-25T02:16:45;99522.63;;;6.35;82.31
77360;BME280;66426;51.454;7.266;2023-04-25T02:17:46;99520.91;;;6.34;81.44
77360;BME280;66426;51.454;7.266;2023-04-25T02:18:47;99520.34;;;6.26;81.90
77360;BME280;66426;51.454;7.266;2023-04-25T02:19:48;99520.47;;;6.23;82.20
77360;BME280;66426;51.454;7.266;2023-04-25T02:20:49;99523.09;;;6.24;82.14
77360;BME280;66426;51.454;7.266;2023-04-25T02:21:50;99530.72;;;6.34;82.27
77360;BME280;66426;51.454;7.266;2023-04-25T02:22:52;99526.38;;;6.31;82.01
77360;BME280;66426;51.454;7.266;2023-04-25T02:23:53;99526.44;;;6.09;82.37
77360;BME280;66426;51.454;7.266;2023-04-25T02:24:54;99528.53;;;6.01;82.37
77360;BME280;66426;51.454;7.266;2023-04-25T02:25:56;99526.22;;;6.14;82.59
77360;BME280;66426;51.454;7.266;2023-04-25T02:26:57;99527.84;;;6.18;82.46
77360;BME280;66426;51.454;7.266;2023-04-25T02:27:58;99531.50;;;6.15;82.42
77360;BME280;66426;51.454;7.266;2023-04-25T02:28:59;99527.56;;;6.24;82.70
77360;BME280;66426;51.454;7.266;2023-04-25T02:30:00;99529.31;;;6.25;82.97
77360;BME280;66426;51.454;7.266;2023-04-25T02:31:01;99530.31;;;6.22;82.80
77360;BME280;66426;51.454;7.266;2023-04-25T02:32:02;99530.66;;;6.15;83.41
77360;BME280;66426;51.454;7.266;2023-04-25T02:33:03;99532.31;;;5.97;83.98
77360;BME280;66426;51.454;7.266;2023-04-25T02:34:04;99526.31;;;6.12;83.38
77360;BME280;66426;51.454;7.266;2023-04-25T02:35:05;99534.81;;;6.22;82.83
77360;BME280;66426;51.454;7.266;2023-04-25T02:36:07;99533.72;;;6.26;82.91
77360;BME280;66426;51.454;7.266;2023-04-25T02:37:08;99533.66;;;6.28;82.49
77360;BME280;66426;51.454;7.266;2023-04-25T02:38:10;99528.03;;;6.13;82.77
77360;BME280;66426;51.454;7.266;2023-04-25T02:39:11;99525.44;;;6.12;82.99
77360;BME280;66426;51.454;7.266;2023-04-25T02:40:12;99531.47;;;6.17;82.71
77360;BME280;66426;51.454;7.266;2023-04-25T02:41:13;99533.84;;;6.02;83.18
77360;BME280;66426;51.454;7.266;2023-04-25T02:42:14;99540.59;;;6.11;82.87
77360;BME280;66426;51.454;7.266;2023-04-25T02:43:14;99530.69;;;6.13;83.56
77360;BME280;66426;51.454;7.266;2023-04-25T02:44:16;99534.03;;;6.18;83.46
77360;BME280;66426;51.454;7.266;2023-04-25T02:45:17;99550.63;;;6.06;83.68
77360;BME280;66426;51.454;7.266;2023-04-25T02:46:18;99543.88;;;6.18;83.39
77360;BME280;66426;51.454;7.266;2023-04-25T02:47:19;99539.47;;;6.17;83.39
77360;BME280;66426;51.454;7.266;2023-04-25T02:48:20;99542.25;;;6.14;83.36
77360;BME280;66426;51.454;7.266;2023-04-25T02:49:21;99541.34;;;6.15;83.18
77360;BME280;66426;51.454;7.266;2023-04-25T02:50:22;99541.34;;;6.35;82.46
77360;BME280;66426;51.454;7.266;2023-04-25T02:51:23;99542.69;;;6.25;82.94
77360;BME280;66426;51.454;7.266;2023-04-25T02:52:23;99536.81;;;6.17;83.36
77360;BME280;66426;51.454;7.266;2023-04-25T02:53:26;99543.75;;;6.21;83.54
77360;BME280;66426;51.454;7.266;2023-04-25T02:54:27;99540.16;;;6.22;84.26
77360;BME280;66426;51.454;7.266;2023-04-25T02:55:28;99541.81;;;6.24;83.42
77360;BME280;66426;51.454;7.266;2023-04-25T02:56:29;99547.03;;;6.07;83.73
77360;BME280;66426;51.454;7.266;2023-04-25T02:57:30;99545.94;;;6.11;83.92
77360;BME280;66426;51.454;7.266;2023-04-25T02:58:31;99542.47;;;6.09;83.47
77360;BME280;66426;51.454;7.266;2023-04-25T02:59:32;99546.22;;;6.05;84.50
77360;BME280;66426;51.454;7.266;2023-04-25T03:00:32;99540.47;;;6.14;84.65
77360;BME280;66426;51.454;7.266;2023-04-25T03:01:33;99541.88;;;6.23;84.13
77360;BME280;66426;51.454;7.266;2023-04-25T03:02:34;99544.25;;;6.09;84.01
77360;BME280;66426;51.454;7.266;2023-04-25T03:03:35;99550.44;;;6.11;84.10
77360;BME280;66426;51.454;7.266;2023-04-25T03:04:36;99547.53;;;5.95;84.67
77360;BME280;66426;51.454;7.266;2023-04-25T03:05:37;99544.66;;;5.99;85.18
77360;BME280;66426;51.454;7.266;2023-04-25T03:06:38;99547.84;;;6.09;85.09
77360;BME280;66426;51.454;7.266;2023-04-25T03:07:39;99543.94;;;6.16;84.75
77360;BME280;66426;51.454;7.266;2023-04-25T03:08:41;99556.97;;;6.03;85.78
77360;BME280;66426;51.454;7.266;2023-04-25T03:09:43;99542.69;;;6.04;84.71
77360;BME280;66426;51.454;7.266;2023-04-25T03:10:44;99550.63;;;6.06;84.40
77360;BME280;66426;51.454;7.266;2023-04-25T03:11:46;99555.91;;;6.08;85.31
77360;BME280;66426;51.454;7.266;2023-04-25T03:12:46;99558.78;;;6.03;85.81
77360;BME280;66426;51.454;7.266;2023-04-25T03:13:47;99556.09;;;6.03;85.36
77360;BME280;66426;51.454;7.266;2023-04-25T03:14:48;99563.13;;;6.05;85.59
77360;BME280;66426;51.454;7.266;2023-04-25T03:15:49;99562.78;;;5.91;85.39
77360;BME280;66426;51.454;7.266;2023-04-25T03:16:50;99562.00;;;5.89;86.00
77360;BME280;66426;51.454;7.266;2023-04-25T03:17:51;99552.47;;;6.04;86.02
77360;BME280;66426;51.454;7.266;2023-04-25T03:18:52;99552.56;;;6.02;85.51
77360;BME280;66426;51.454;7.266;2023-04-25T03:19:53;99557.56;;;5.88;85.43
77360;BME280;66426;51.454;7.266;2023-04-25T03:20:54;99554.28;;;6.03;85.66
77360;BME280;66426;51.454;7.266;2023-04-25T03:21:55;99548.56;;;6.13;84.96
77360;BME280;66426;51.454;7.266;2023-04-25T03:22:56;99545.53;;;6.00;84.85
77360;BME280;66426;51.454;7.266;2023-04-25T03:23:58;99554.03;;;5.88;84.71
77360;BME280;66426;51.454;7.266;2023-04-25T03:24:59;99545.06;;;5.89;85.37
77360;BME280;66426;51.454;7.266;2023-04-25T03:26:00;99545.53;;;6.00;85.24
77360;BME280;66426;51.454;7.266;2023-04-25T03:27:01;99544.44;;;6.04;85.16
77360;BME280;66426;51.454;7.266;2023-04-25T03:28:02;99554.47;;;5.99;84.87
77360;BME280;66426;51.454;7.266;2023-04-25T03:29:03;99546.66;;;5.94;85.07
77360;BME280;66426;51.454;7.266;2023-04-25T03:30:05;99550.22;;;5.93;85.75
77360;BME280;66426;51.454;7.266;2023-04-25T03:31:07;99554.09;;;6.08;84.91
77360;BME280;66426;51.454;7.266;2023-04-25T03:32:08;99543.06;;;6.16;85.00
77360;BME280;66426;51.454;7.266;2023-04-25T03:33:09;99557.72;;;6.07;84.97
77360;BME280;66426;51.454;7.266;2023-04-25T03:34:10;99556.22;;;6.00;85.04
77360;BME280;66426;51.454;7.266;2023-04-25T03:35:11;99550.81;;;6.01;84.77
77360;BME280;66426;51.454;7.266;2023-04-25T03:36:11;99554.56;;;5.97;85.13
77360;BME280;66426;51.454;7.266;2023-04-25T03:37:12;99559.03;;;5.97;85.11
77360;BME280;66426;51.454;7.266;2023-04-25T03:38:13;99555.03;;;6.07;85.12
77360;BME280;66426;51.454;7.266;2023-04-25T03:39:16;99555.97;;;6.06;85.32
77360;BME280;66426;51.454;7.266;2023-04-25T03:40:17;99566.75;;;6.04;85.28
77360;BME280;66426;51.454;7.266;2023-04-25T03:41:18;99561.25;;;6.08;85.24
77360;BME280;66426;51.454;7.266;2023-04-25T03:42:19;99567.97;;;5.96;85.35
77360;BME280;66426;51.454;7.266;2023-04-25T03:43:20;99564.72;;;5.88;85.73
77360;BME280;66426;51.454;7.266;2023-04-25T03:44:21;99566.66;;;6.06;85.69
77360;BME280;66426;51.454;7.266;2023-04-25T03:45:22;99569.00;;;6.14;84.97
77360;BME280;66426;51.454;7.266;2023-04-25T03:46:23;99562.97;;;6.09;84.97
77360;BME280;66426;51.454;7.266;2023-04-25T03:47:24;99564.59;;;6.13;85.09
77360;BME280;66426;51.454;7.266;2023-04-25T03:48:25;99573.09;;;6.02;84.72
77360;BME280;66426;51.454;7.266;2023-04-25T03:49:26;99573.75;;;6.07;85.11
77360;BME280;66426;51.454;7.266;2023-04-25T03:50:27;99570.31;;;6.03;85.44
77360;BME280;66426;51.454;7.266;2023-04-25T03:51:28;99574.81;;;6.03;85.17
77360;BME280;66426;51.454;7.266;2023-04-25T03:52:29;99572.50;;;6.16;85.00
77360;BME280;66426;51.454;7.266;2023-04-25T03:53:30;99565.78;;;6.05;84.77
77360;BME280;66426;51.454;7.266;2023-04-25T03:54:32;99566.16;;;5.96;85.27
77360;BME280;66426;51.454;7.266;2023-04-25T03:55:33;99570.19;;;5.84;86.23
77360;BME280;66426;51.454;7.266;2023-04-25T03:56:34;99568.44;;;5.83;86.35
77360;BME280;66426;51.454;7.266;2023-04-25T03:57:35;99574.19;;;5.96;85.71
77360;BME280;66426;51.454;7.266;2023-04-25T03:58:36;99564.44;;;5.95;86.04
77360;BME280;66426;51.454;7.266;2023-04-25T03:59:37;99569.84;;;5.72;86.22
77360;BME280;66426;51.454;7.266;2023-04-25T04:00:38;99565.22;;;5.75;86.44
77360;BME280;66426;51.454;7.266;2023-04-25T04:01:39;99568.25;;;5.88;85.94
77360;BME280;66426;51.454;7.266;2023-04-25T04:02:40;99569.94;;;5.91;86.01
77360;BME280;66426;51.454;7.266;2023-04-25T04:03:41;99567.22;;;5.92;85.78
77360;BME280;66426;51.454;7.266;2023-04-25T04:04:41;99569.47;;;6.03;85.08
77360;BME280;66426;51.454;7.266;2023-04-25T04:05:44;99570.38;;;5.80;86.14
77360;BME280;66426;51.454;7.266;2023-04-25T04:06:45;99572.59;;;5.91;86.34
77360;BME280;66426;51.454;7.266;2023-04-25T04:07:46;99573.00;;;6.03;86.53
77360;BME280;66426;51.454;7.266;2023-04-25T04:08:47;99581.69;;;6.09;85.50
77360;BME280;66426;51.454;7.266;2023-04-25T04:09:49;99582.38;;;5.92;85.89
77360;BME280;66426;51.454;7.266;2023-04-25T04:10:50;99576.09;;;5.93;85.92
77360;BME280;66426;51.454;7.266;2023-04-25T04:11:51;99579.44;;;5.99;85.44
77360;BME280;66426;51.454;7.266;2023-04-25T04:12:52;99576.44;;;6.07;85.39
77360;BME280;66426;51.454;7.266;2023-04-25T04:13:53;99584.97;;;5.95;85.40
77360;BME280;66426;51.454;7.266;2023-04-25T04:14:55;99586.31;;;6.05;86.09
77360;BME280;66426;51.454;7.266;2023-04-25T04:15:55;99582.59;;;6.09;85.60
77360;BME280;66426;51.454;7.266;2023-04-25T04:16:56;99597.31;;;6.19;85.88
77360;BME280;66426;51.454;7.266;2023-04-25T04:17:57;99599.69;;;6.05;85.62
77360;BME280;66426;51.454;7.266;2023-04-25T04:19:02;99587.84;;;6.53;82.64
77360;BME280;66426;51.454;7.266;2023-04-25T04:20:04;99594.00;;;5.91;81.34
77360;BME280;66426;51.454;7.266;2023-04-25T04:21:06;99587.72;;;6.77;83.75
77360;BME280;66426;51.454;7.266;2023-04-25T04:22:07;99601.25;;;6.31;79.47
77360;BME280;66426;51.454;7.266;2023-04-25T04:23:08;99592.03;;;5.96;81.05
77360;BME280;66426;51.454;7.266;2023-04-25T04:24:09;99600.59;;;5.82;81.25
77360;BME280;66426;51.454;7.266;2023-04-25T04:25:12;99593.91;;;5.48;80.57
77360;BME280;66426;51.454;7.266;2023-04-25T04:26:13;99603.78;;;5.46;80.01
77360;BME280;66426;51.454;7.266;2023-04-25T04:27:16;99597.03;;;5.59;80.74
77360;BME280;66426;51.454;7.266;2023-04-25T04:28:18;99601.19;;;5.45;81.34
77360;BME280;66426;51.454;7.266;2023-04-25T04:29:18;99599.38;;;5.45;81.46
77360;BME280;66426;51.454;7.266;2023-04-25T04:30:22;99599.31;;;5.47;80.97
77360;BME280;66426;51.454;7.266;2023-04-25T04:31:24;99598.72;;;5.62;80.17
77360;BME280;66426;51.454;7.266;2023-04-25T04:32:25;99600.94;;;5.51;80.23
77360;BME280;66426;51.454;7.266;2023-04-25T04:33:28;99595.88;;;5.43;80.43
77360;BME280;66426;51.454;7.266;2023-04-25T04:34:29;99603.56;;;5.52;80.43
77360;BME280;66426;51.454;7.266;2023-04-25T04:35:29;99607.97;;;5.30;80.23
77360;BME280;66426;51.454;7.266;2023-04-25T04:36:30;99599.28;;;5.25;82.09
77360;BME280;66426;51.454;7.266;2023-04-25T04:37:31;99608.16;;;5.25;81.18
77360;BME280;66426;51.454;7.266;2023-04-25T04:38:33;99607.44;;;5.20;81.75
77360;BME280;66426;51.454;7.266;2023-04-25T04:39:34;99606.81;;;5.37;81.61
77360;BME280;66426;51.454;7.266;2023-04-25T04:40:36;99610.22;;;5.40;80.52
77360;BME280;66426;51.454;7.266;2023-04-25T04:41:38;99607.16;;;5.28;81.30
77360;BME280;66426;51.454;7.266;2023-04-25T04:42:39;99606.28;;;5.27;82.50
77360;BME280;66426;51.454;7.266;2023-04-25T04:43:40;99611.22;;;5.38;81.97
77360;BME280;66426;51.454;7.266;2023-04-25T04:44:41;99613.25;;;5.31;82.46
77360;BME280;66426;51.454;7.266;2023-04-25T04:45:42;99608.09;;;5.27;82.58
77360;BME280;66426;51.454;7.266;2023-04-25T04:46:43;99611.91;;;5.43;82.51
77360;BME280;66426;51.454;7.266;2023-04-25T04:47:45;99608.16;;;5.25;82.51
77360;BME280;66426;51.454;7.266;2023-04-25T04:48:46;99613.63;;;5.22;82.78
77360;BME280;66426;51.454;7.266;2023-04-25T04:49:47;99608.78;;;5.08;82.04
77360;BME280;66426;51.454;7.266;2023-04-25T04:50:48;99611.84;;;5.21;81.48
77360;BME280;66426;51.454;7.266;2023-04-25T04:51:49;99621.72;;;5.19;82.05
77360;BME280;66426;51.454;7.266;2023-04-25T04:52:50;99615.22;;;5.26;82.37
77360;BME280;66426;51.454;7.266;2023-04-25T04:53:51;99619.78;;;5.24;nan
77360;BME280;66426;51.454;7.266;2023-04-25T04:54:52;99621.63;;;5.22;81.98
77360;BME280;66426;51.454;7.266;2023-04-25T04:55:54;99621.25;;;5.31;82.54
77360;BME280;66426;51.454;7.266;2023-04-25T04:56:55;99616.91;;;5.29;82.11
77360;BME280;66426;51.454;7.266;2023-04-25T04:57:56;99618.41;;;5.36;81.86
77360;BME280;66426;51.454;7.266;2023-04-25T04:58:57;99620.63;;;5.48;81.35
77360;BME280;66426;51.454;7.266;2023-04-25T04:59:59;99615.88;;;5.33;82.21
77360;BME280;66426;51.454;7.266;2023-04-25T05:01:00;99619.53;;;5.30;81.93
77360;BME280;66426;51.454;7.266;2023-04-25T05:02:01;99631.38;;;5.23;82.22
77360;BME280;66426;51.454;7.266;2023-04-25T05:03:02;99632.06;;;5.28;82.54
77360;BME280;66426;51.454;7.266;2023-04-25T05:04:03;99632.88;;;5.30;82.36
77360;BME280;66426;51.454;7.266;2023-04-25T05:05:04;99629.22;;;5.33;82.23
77360;BME280;66426;51.454;7.266;2023-04-25T05:06:05;99632.81;;;5.08;81.99
77360;BME280;66426;51.454;7.266;2023-04-25T05:07:06;99637.47;;;5.02;82.92
77360;BME280;66426;51.454;7.266;2023-04-25T05:08:07;99627.25;;;5.14;83.16
77360;BME280;66426;51.454;7.266;2023-04-25T05:09:08;99628.81;;;5.20;83.74
77360;BME280;66426;51.454;7.266;2023-04-25T05:10:09;99626.03;;;5.23;84.13
77360;BME280;66426;51.454;7.266;2023-04-25T05:11:12;99630.84;;;5.13;83.69
77360;BME280;66426;51.454;7.266;2023-04-25T05:12:13;99633.34;;;5.18;83.57
77360;BME280;66426;51.454;7.266;2023-04-25T05:13:14;99631.84;;;5.34;83.65
77360;BME280;66426;51.454;7.266;2023-04-25T05:14:15;99628.03;;;5.16;83.30
77360;BME280;66426;51.454;7.266;2023-04-25T05:15:17;99635.25;;;5.14;83.77
77360;BME280;66426;51.454;7.266;2023-04-25T05:16:18;99640.19;;;5.25;84.10
77360;BME280;66426;51.454;7.266;2023-04-25T05:17:19;99637.94;;;5.14;83.46
77360;BME280;66426;51.454;7.266;2023-04-25T05:18:20;99635.38;;;5.35;83.42
77360;BME280;66426;51.454;7.266;2023-04-25T05:19:21;99640.53;;;5.16;83.45
77360;BME280;66426;51.454;7.266;2023-04-25T05:20:22;99635.72;;;5.26;83.01
77360;BME280;66426;51.454;7.266;2023-04-25T05:21:22;99642.63;;;5.31;82.74
77360;BME280;66426;51.454;7.266;2023-04-25T05:22:24;99645.22;;;5.34;82.74
77360;BME280;66426;51.454;7.266;2023-04-25T05:23:25;99641.75;;;5.31;82.89
77360;BME280;66426;51.454;7.266;2023-04-25T05:24:26;99649.16;;;5.24;83.63
77360;BME280;66426;51.454;7.266;2023-04-25T05:25:27;99652.34;;;5.09;84.08
77360;BME280;66426;51.454;7.266;2023-04-25T05:26:29;99653.56;;;5.25;83.29
77360;BME280;66426;51.454;7.266;2023-04-25T05:27:31;99657.78;;;5.07;82.90
77360;BME280;66426;51.454;7.266;2023-04-25T05:28:32;99656.56;;;5.16;83.83